createdAt,value
2023-05-08T00:02:18.795Z,8.97
2023-05-08T00:12:21.485Z,9.02
2023-05-08T00:22:23.954Z,8.97
2023-05-08T00:32:26.505Z,8.88
2023-05-08T00:42:29.482Z,8.88
2023-05-08T00:52:33.278Z,8.64
2023-05-08T01:02:36.284Z,8.54
2023-05-08T01:13:11.717Z,8.68
2023-05-08T01:23:32.783Z,8.82
2023-05-08T01:33:46.842Z,8.68
2023-05-08T01:44:15.824Z,8.80
2023-05-08T01:54:24.431Z,8.73
2023-05-08T02:04:28.428Z,8.71
2023-05-08T02:14:32.853Z,8.73
2023-05-08T02:24:36.731Z,8.66
2023-05-08T02:34:45.394Z,8.67
2023-05-08T02:44:58.304Z,8.67
2023-05-08T02:55:18.836Z,8.75
2023-05-08T03:05:30.745Z,8.51
2023-05-08T03:15:37.634Z,8.36
2023-05-08T03:25:43.342Z,8.49
2023-05-08T03:35:49.316Z,8.47
2023-05-08T03:45:52.694Z,8.40
2023-05-08T03:55:57.116Z,8.48
2023-05-08T04:06:17.317Z,8.65
2023-05-08T04:16:25.444Z,8.93
2023-05-08T04:26:30.041Z,8.65
2023-05-08T04:36:35.018Z,8.56
2023-05-08T04:46:39.432Z,8.74
2023-05-08T04:56:42.024Z,9.02
2023-05-08T05:06:44.726Z,9.47
2023-05-08T05:16:47.989Z,9.65
2023-05-08T05:26:50.768Z,10.40
2023-05-08T05:36:53.505Z,11.07
2023-05-08T05:46:56.776Z,11.15
2023-05-08T05:57:01.992Z,11.70
2023-05-08T06:07:05.732Z,11.55
2023-05-08T06:17:08.552Z,12.11
2023-05-08T06:27:12.030Z,12.55
2023-05-08T06:37:14.757Z,13.21
2023-05-08T06:47:17.337Z,12.58
2023-05-08T06:57:20.151Z,13.13
2023-05-08T07:07:23.358Z,13.60
2023-05-08T07:17:26.855Z,13.21
2023-05-08T07:27:29.473Z,14.08
2023-05-08T07:37:33.219Z,14.95
2023-05-08T07:47:35.880Z,14.15
2023-05-08T07:57:39.966Z,14.87
2023-05-08T08:07:42.514Z,14.38
2023-05-08T08:17:45.080Z,15.15
2023-05-08T08:27:48.054Z,15.65
2023-05-08T08:37:50.587Z,15.81
2023-05-08T08:47:53.836Z,16.46
2023-05-08T08:58:11.107Z,15.38
2023-05-08T09:08:14.130Z,15.56
2023-05-08T09:18:17.669Z,15.95
2023-05-08T09:28:27.182Z,16.79
2023-05-08T09:38:40.765Z,16.18
2023-05-08T09:48:43.408Z,17.40
2023-05-08T09:58:46.089Z,17.03
2023-05-08T10:08:49.642Z,17.03
2023-05-08T10:18:57.164Z,17.06
2023-05-08T10:29:07.946Z,17.43
2023-05-08T10:39:33.658Z,19.07
2023-05-08T10:49:51.935Z,18.36
2023-05-08T10:59:55.197Z,18.35
2023-05-08T11:10:28.694Z,17.97
2023-05-08T11:21:06.094Z,19.74
2023-05-08T11:31:09.293Z,18.02
2023-05-08T11:41:24.492Z,18.08
2023-05-08T11:51:32.586Z,17.93
2023-05-08T12:01:36.184Z,18.30
2023-05-08T12:11:41.267Z,18.05
2023-05-08T12:21:50.947Z,19.62
2023-05-08T12:31:54.473Z,18.58
2023-05-08T12:41:58.515Z,18.45
2023-05-08T12:52:03.352Z,18.87
2023-05-08T13:02:16.632Z,18.06
2023-05-08T13:12:19.356Z,17.40
2023-05-08T13:22:26.429Z,16.99
2023-05-08T13:32:28.927Z,17.25
2023-05-08T13:42:31.745Z,17.82
2023-05-08T13:52:34.430Z,17.71
2023-05-08T14:02:37.916Z,17.30
2023-05-08T14:12:40.926Z,18.27
2023-05-08T14:22:43.496Z,18.17
2023-05-08T14:32:46.527Z,17.71
2023-05-08T14:42:49.041Z,17.33
2023-05-08T14:52:51.775Z,17.06
2023-05-08T15:02:54.416Z,17.24
2023-05-08T15:12:57.271Z,17.68
2023-05-08T15:22:59.823Z,17.67
2023-05-08T15:33:02.599Z,17.70
2023-05-08T15:43:05.576Z,18.05
2023-05-08T15:53:08.240Z,18.14
2023-05-08T16:03:11.514Z,17.05
2023-05-08T16:13:14.862Z,16.82
2023-05-08T16:23:17.355Z,17.32
2023-05-08T16:33:20.165Z,17.85
2023-05-08T16:43:22.682Z,17.12
2023-05-08T16:53:27.373Z,16.16
2023-05-08T17:03:30.558Z,15.74
2023-05-08T17:13:33.182Z,15.26
2023-05-08T17:23:35.695Z,15.06
2023-05-08T17:33:38.165Z,14.81
2023-05-08T17:43:40.843Z,14.58
2023-05-08T17:53:43.407Z,14.34
2023-05-08T18:03:46.188Z,13.85
2023-05-08T18:13:50.675Z,13.21
2023-05-08T18:23:53.225Z,13.07
2023-05-08T18:33:55.779Z,13.05
2023-05-08T18:44:01.481Z,12.79
2023-05-08T18:54:04.120Z,12.63
2023-05-08T19:04:06.765Z,12.39
2023-05-08T19:14:09.469Z,12.26
2023-05-08T19:24:12.356Z,11.45
2023-05-08T19:34:15.331Z,11.56
2023-05-08T19:44:18.256Z,11.29
2023-05-08T19:54:20.722Z,11.24
2023-05-08T20:04:24.276Z,10.83
2023-05-08T20:14:26.988Z,10.64
2023-05-08T20:24:29.492Z,10.72
2023-05-08T20:34:32.013Z,10.54
2023-05-08T20:44:34.576Z,10.32
2023-05-08T20:54:37.158Z,9.54
2023-05-08T21:04:40.140Z,9.69
2023-05-08T21:14:44.011Z,10.09
2023-05-08T21:24:46.531Z,10.36
2023-05-08T21:34:49.055Z,9.70
2023-05-08T21:44:54.558Z,9.95
2023-05-08T21:54:57.126Z,10.45
2023-05-08T22:04:59.615Z,10.73
2023-05-08T22:15:02.601Z,10.77
2023-05-08T22:25:05.798Z,10.82
2023-05-08T22:35:08.526Z,10.64
2023-05-08T22:45:12.441Z,10.40
2023-05-08T22:55:15.934Z,10.26
2023-05-08T23:05:19.087Z,10.17
2023-05-08T23:15:21.621Z,10.09
2023-05-08T23:25:24.518Z,9.84
2023-05-08T23:35:28.269Z,9.61
2023-05-08T23:45:30.816Z,9.45
2023-05-08T23:55:36.823Z,9.45
